createdAt,value
2017-08-05T00:00:35.334Z,2.80
2017-08-05T00:01:31.587Z,3.00
2017-08-05T00:02:27.903Z,3.20
2017-08-05T00:03:24.152Z,2.90
2017-08-05T00:04:20.391Z,2.50
2017-08-05T00:05:16.635Z,3.50
2017-08-05T00:06:12.883Z,3.30
2017-08-05T00:07:09.127Z,3.00
2017-08-05T00:08:05.395Z,2.90
2017-08-05T00:09:01.660Z,2.60
2017-08-05T00:09:57.971Z,3.20
2017-08-05T00:10:54.229Z,2.90
2017-08-05T00:11:50.486Z,2.90
2017-08-05T00:12:46.768Z,3.60
2017-08-05T00:13:43.028Z,3.30
2017-08-05T00:14:39.271Z,3.00
2017-08-05T00:15:35.514Z,3.30
2017-08-05T00:16:31.767Z,3.10
2017-08-05T00:17:28.008Z,3.10
2017-08-05T00:18:24.275Z,3.20
2017-08-05T00:19:20.530Z,2.40
2017-08-05T00:20:16.778Z,2.70
2017-08-05T00:21:13.042Z,3.00
2017-08-05T00:22:09.296Z,3.20
2017-08-05T00:23:05.570Z,2.50
2017-08-05T00:24:01.819Z,2.70
2017-08-05T00:24:58.074Z,2.70
2017-08-05T00:25:54.327Z,3.20
2017-08-05T00:26:50.575Z,3.50
2017-08-05T00:27:46.818Z,2.60
2017-08-05T00:28:43.092Z,2.40
2017-08-05T00:29:39.364Z,2.90
2017-08-05T00:30:35.603Z,2.80
2017-08-05T00:31:31.867Z,3.20
2017-08-05T00:32:28.106Z,2.70
2017-08-05T00:33:24.376Z,2.80
2017-08-05T00:34:20.620Z,3.00
2017-08-05T00:35:16.882Z,2.90
2017-08-05T00:36:13.143Z,3.10
2017-08-05T00:37:09.427Z,3.40
2017-08-05T00:38:05.683Z,3.00
2017-08-05T00:39:01.991Z,2.70
2017-08-05T00:39:58.355Z,3.10
2017-08-05T00:40:54.608Z,2.90
2017-08-05T00:41:50.872Z,3.10
2017-08-05T00:42:47.120Z,3.20
2017-08-05T00:43:43.380Z,3.60
2017-08-05T00:44:39.664Z,3.30
2017-08-05T00:45:35.899Z,3.00
2017-08-05T00:46:32.165Z,2.90
2017-08-05T00:47:28.409Z,3.40
2017-08-05T00:48:24.656Z,3.40
2017-08-05T00:49:20.956Z,3.40
2017-08-05T00:50:17.214Z,3.60
2017-08-05T00:51:13.456Z,2.80
2017-08-05T00:52:09.705Z,3.50
2017-08-05T00:53:05.943Z,3.10
2017-08-05T00:54:02.199Z,3.00
2017-08-05T00:54:58.471Z,3.40
2017-08-05T00:55:54.739Z,3.50
2017-08-05T00:56:51.001Z,3.00
2017-08-05T00:57:47.255Z,3.80
2017-08-05T00:58:43.499Z,3.20
2017-08-05T00:59:39.772Z,3.50
2017-08-05T01:00:36.050Z,3.00
2017-08-05T01:01:32.298Z,3.50
2017-08-05T01:02:28.552Z,3.00
2017-08-05T01:03:24.819Z,3.00
2017-08-05T01:04:21.069Z,3.00
2017-08-05T01:05:17.330Z,3.40
2017-08-05T01:06:13.586Z,3.70
2017-08-05T01:07:09.836Z,3.00
2017-08-05T01:08:06.079Z,3.10
2017-08-05T01:09:02.349Z,3.80
2017-08-05T01:09:58.859Z,3.10
2017-08-05T01:10:55.106Z,4.10
2017-08-05T01:11:51.366Z,3.60
2017-08-05T01:12:47.623Z,3.40
2017-08-05T01:13:43.871Z,3.20
2017-08-05T01:14:40.135Z,4.20
2017-08-05T01:15:36.399Z,3.40
2017-08-05T01:16:32.653Z,3.80
2017-08-05T01:17:28.907Z,2.80
2017-08-05T01:18:25.159Z,3.50
2017-08-05T01:19:21.410Z,3.90
2017-08-05T01:20:17.686Z,2.90
2017-08-05T01:21:13.954Z,3.30
2017-08-05T01:22:10.204Z,3.40
2017-08-05T01:23:06.454Z,3.50
2017-08-05T01:24:02.712Z,3.20
2017-08-05T01:24:58.981Z,2.80
2017-08-05T01:25:55.226Z,4.00
2017-08-05T01:26:51.467Z,3.10
2017-08-05T01:27:47.707Z,3.10
2017-08-05T01:28:43.959Z,3.60
2017-08-05T01:29:40.231Z,3.60
2017-08-05T01:30:36.495Z,3.40
2017-08-05T01:31:32.751Z,4.40
2017-08-05T01:32:29.027Z,2.90
2017-08-05T01:33:25.304Z,3.20
2017-08-05T01:34:21.569Z,3.30
2017-08-05T01:35:17.815Z,3.60
2017-08-05T01:36:14.078Z,3.30
2017-08-05T01:37:10.330Z,3.50
2017-08-05T01:38:06.611Z,4.00
2017-08-05T01:39:02.866Z,4.60
2017-08-05T01:39:59.194Z,3.10
2017-08-05T01:40:55.446Z,3.50
2017-08-05T01:41:51.719Z,3.70
2017-08-05T01:42:47.998Z,3.10
2017-08-05T01:43:44.255Z,3.00
2017-08-05T01:44:40.502Z,3.00
2017-08-05T01:45:36.748Z,3.80
2017-08-05T01:46:33.014Z,3.40
2017-08-05T01:47:29.270Z,3.30
2017-08-05T01:48:25.547Z,3.90
2017-08-05T01:49:21.801Z,3.50
2017-08-05T01:50:18.042Z,3.00
2017-08-05T01:51:14.303Z,3.30
2017-08-05T01:52:10.547Z,3.30
2017-08-05T01:53:06.788Z,3.20
2017-08-05T01:54:03.042Z,3.00
2017-08-05T01:54:59.299Z,3.70
2017-08-05T01:55:55.552Z,3.00
2017-08-05T01:56:51.819Z,3.30
2017-08-05T01:57:48.057Z,3.70
2017-08-05T01:58:44.302Z,3.40
2017-08-05T01:59:40.553Z,3.70
2017-08-05T02:00:36.807Z,3.30
2017-08-05T02:01:33.075Z,3.30
2017-08-05T02:02:29.382Z,4.10
2017-08-05T02:03:25.646Z,2.80
2017-08-05T02:04:21.891Z,3.00
2017-08-05T02:05:18.145Z,3.80
2017-08-05T02:06:14.427Z,3.30
2017-08-05T02:07:10.687Z,3.00
2017-08-05T02:08:06.930Z,4.20
2017-08-05T02:09:03.183Z,3.40
2017-08-05T02:09:59.483Z,3.60
2017-08-05T02:10:55.823Z,3.30
2017-08-05T02:11:52.088Z,2.90
2017-08-05T02:12:48.344Z,3.40
2017-08-05T02:13:44.600Z,2.90
2017-08-05T02:14:40.872Z,3.10
2017-08-05T02:15:37.138Z,2.90
2017-08-05T02:16:33.415Z,3.90
2017-08-05T02:17:29.676Z,3.50
2017-08-05T02:18:25.931Z,2.60
2017-08-05T02:19:22.236Z,3.10
2017-08-05T02:20:18.544Z,3.50
2017-08-05T02:21:14.803Z,4.00
2017-08-05T02:22:11.096Z,3.60
2017-08-05T02:23:07.346Z,3.20
2017-08-05T02:24:03.611Z,3.30
2017-08-05T02:24:59.865Z,2.90
2017-08-05T02:25:56.132Z,3.50
2017-08-05T02:26:52.431Z,3.00
2017-08-05T02:27:48.714Z,2.80
2017-08-05T02:28:44.983Z,3.90
2017-08-05T02:29:41.239Z,3.60
2017-08-05T02:30:37.519Z,3.50
2017-08-05T02:31:33.776Z,3.30
2017-08-05T02:32:30.034Z,3.00
2017-08-05T02:33:26.318Z,2.90
2017-08-05T02:34:22.575Z,3.30
2017-08-05T02:35:18.855Z,2.70
2017-08-05T02:36:15.132Z,4.20
2017-08-05T02:37:11.387Z,3.00
2017-08-05T02:38:07.655Z,2.90
2017-08-05T02:39:03.940Z,3.50
2017-08-05T02:40:00.208Z,3.20
2017-08-05T02:40:56.470Z,2.70
2017-08-05T02:41:52.727Z,4.40
2017-08-05T02:42:48.991Z,3.20
2017-08-05T02:43:45.266Z,3.20
2017-08-05T02:44:41.527Z,3.20
2017-08-05T02:45:37.800Z,3.10
2017-08-05T02:46:34.067Z,3.20
2017-08-05T02:47:30.343Z,4.00
2017-08-05T02:48:26.631Z,3.20
2017-08-05T02:49:22.883Z,2.60
2017-08-05T02:50:19.144Z,3.20
2017-08-05T02:51:15.419Z,2.60
2017-08-05T02:52:11.686Z,3.60
2017-08-05T02:53:07.959Z,3.30
2017-08-05T02:54:04.235Z,3.20
2017-08-05T02:55:00.492Z,3.20
2017-08-05T02:55:56.752Z,3.30
2017-08-05T02:56:53.019Z,3.10
2017-08-05T02:57:49.283Z,3.10
2017-08-05T02:58:45.543Z,3.50
2017-08-05T02:59:41.811Z,4.00
2017-08-05T03:00:38.076Z,3.20
2017-08-05T03:01:34.331Z,3.70
2017-08-05T03:02:30.613Z,4.40
2017-08-05T03:03:26.878Z,2.80
2017-08-05T03:04:23.183Z,3.10
2017-08-05T03:05:19.438Z,2.90
2017-08-05T03:06:15.708Z,3.20
2017-08-05T03:07:11.956Z,4.20
2017-08-05T03:08:08.207Z,4.50
2017-08-05T03:09:04.483Z,3.60
2017-08-05T03:10:00.763Z,3.00
2017-08-05T03:10:57.022Z,3.10
2017-08-05T03:11:53.274Z,2.90
2017-08-05T03:12:49.539Z,5.20
2017-08-05T03:13:45.787Z,3.60
2017-08-05T03:14:42.043Z,3.20
2017-08-05T03:15:38.303Z,3.40
2017-08-05T03:16:34.559Z,3.10
2017-08-05T03:17:30.835Z,3.10
2017-08-05T03:18:27.085Z,3.40
2017-08-05T03:19:23.339Z,3.20
2017-08-05T03:20:19.623Z,3.10
2017-08-05T03:21:15.895Z,2.70
2017-08-05T03:22:12.154Z,3.10
2017-08-05T03:23:08.411Z,3.60
2017-08-05T03:24:04.666Z,3.30
2017-08-05T03:25:00.918Z,4.10
2017-08-05T03:25:57.187Z,3.10
2017-08-05T03:26:53.440Z,3.00
2017-08-05T03:27:49.709Z,2.80
2017-08-05T03:28:45.971Z,2.80
2017-08-05T03:29:42.247Z,3.70
2017-08-05T03:30:38.536Z,2.90
2017-08-05T03:31:34.795Z,3.40
2017-08-05T03:32:31.064Z,4.00
2017-08-05T03:33:27.310Z,3.00
2017-08-05T03:34:23.575Z,3.10
2017-08-05T03:35:19.843Z,3.50
2017-08-05T03:36:16.137Z,3.40
2017-08-05T03:37:12.398Z,3.60
2017-08-05T03:38:08.675Z,3.30
2017-08-05T03:39:04.942Z,3.00
2017-08-05T03:40:01.215Z,3.10
2017-08-05T03:40:57.495Z,3.30
2017-08-05T03:41:53.755Z,2.70
2017-08-05T03:42:50.024Z,3.00
2017-08-05T03:43:46.288Z,3.90
2017-08-05T03:44:42.543Z,3.30
2017-08-05T03:45:38.798Z,3.00
2017-08-05T03:46:35.092Z,2.60
2017-08-05T03:47:31.364Z,3.50
2017-08-05T03:48:27.619Z,3.10
2017-08-05T03:49:23.877Z,3.40
2017-08-05T03:50:20.134Z,3.00
2017-08-05T03:51:16.403Z,3.50
2017-08-05T03:52:12.675Z,3.40
2017-08-05T03:53:09.134Z,2.90
2017-08-05T03:54:05.386Z,3.70
2017-08-05T03:55:01.659Z,3.60
2017-08-05T03:55:57.928Z,4.50
2017-08-05T03:56:54.235Z,3.20
2017-08-05T03:57:50.520Z,4.00
2017-08-05T03:58:46.771Z,3.20
2017-08-05T03:59:43.035Z,3.40
2017-08-05T04:00:39.303Z,4.20
2017-08-05T04:01:35.560Z,3.10
2017-08-05T04:02:31.837Z,3.30
2017-08-05T04:03:28.107Z,4.60
2017-08-05T04:04:24.380Z,3.40
2017-08-05T04:05:20.667Z,3.00
2017-08-05T04:06:16.932Z,3.90
2017-08-05T04:07:13.206Z,3.30
2017-08-05T04:08:09.470Z,3.30
2017-08-05T04:09:05.731Z,3.70
2017-08-05T04:10:02.000Z,3.70
2017-08-05T04:10:58.267Z,3.40
2017-08-05T04:11:54.522Z,3.00
2017-08-05T04:12:50.806Z,4.10
2017-08-05T04:13:47.076Z,3.80
2017-08-05T04:14:43.347Z,3.80
2017-08-05T04:15:39.619Z,3.60
2017-08-05T04:16:35.939Z,3.40
2017-08-05T04:17:32.247Z,4.10
2017-08-05T04:18:28.514Z,4.80
2017-08-05T04:19:24.791Z,4.60
2017-08-05T04:20:21.058Z,3.90
2017-08-05T04:21:17.328Z,3.30
2017-08-05T04:22:13.587Z,4.30
2017-08-05T04:23:09.891Z,3.50
2017-08-05T04:24:06.147Z,3.70
2017-08-05T04:25:02.419Z,3.60
2017-08-05T04:26:02.495Z,3.20
2017-08-05T04:26:58.794Z,3.80
2017-08-05T04:27:55.103Z,3.60
2017-08-05T04:28:51.382Z,3.70
2017-08-05T04:29:47.640Z,3.70
2017-08-05T04:30:43.907Z,3.80
2017-08-05T04:31:40.169Z,3.50
2017-08-05T04:32:36.445Z,3.30
2017-08-05T04:33:32.742Z,3.60
2017-08-05T04:34:29.025Z,4.10
2017-08-05T04:35:25.301Z,3.80
2017-08-05T04:36:21.562Z,5.00
2017-08-05T04:37:17.822Z,3.60
2017-08-05T04:38:14.091Z,3.70
2017-08-05T04:39:10.383Z,3.90
2017-08-05T04:40:06.647Z,3.40
2017-08-05T04:41:02.903Z,3.80
2017-08-05T04:41:59.159Z,3.80
2017-08-05T04:42:55.419Z,4.30
2017-08-05T04:43:51.719Z,4.80
2017-08-05T04:44:48.006Z,4.30
2017-08-05T04:45:44.268Z,4.50
2017-08-05T04:46:40.522Z,3.60
2017-08-05T04:47:36.773Z,3.90
2017-08-05T04:48:33.027Z,4.30
2017-08-05T04:49:29.291Z,4.80
2017-08-05T04:50:25.567Z,5.10
2017-08-05T04:51:21.823Z,4.20
2017-08-05T04:52:18.083Z,4.30
2017-08-05T04:53:14.340Z,5.10
2017-08-05T04:54:10.623Z,4.00
2017-08-05T04:55:06.891Z,4.20
2017-08-05T04:56:03.187Z,4.70
2017-08-05T04:56:59.431Z,4.10
2017-08-05T04:57:55.679Z,3.70
2017-08-05T04:58:51.927Z,4.50
2017-08-05T04:59:48.195Z,4.40
2017-08-05T05:00:44.463Z,3.40
2017-08-05T05:01:40.716Z,4.50
2017-08-05T05:02:36.976Z,4.20
2017-08-05T05:03:33.232Z,4.10
2017-08-05T05:04:29.471Z,4.30
2017-08-05T05:05:25.731Z,4.30
2017-08-05T05:06:21.970Z,4.90
2017-08-05T05:07:18.228Z,5.50
2017-08-05T05:08:14.482Z,3.80
2017-08-05T05:09:10.740Z,3.90
2017-08-05T05:10:06.995Z,3.70
2017-08-05T05:11:03.262Z,4.20
2017-08-05T05:11:59.511Z,3.30
2017-08-05T05:12:55.759Z,4.70
2017-08-05T05:13:52.016Z,4.00
2017-08-05T05:14:48.275Z,3.80
2017-08-05T05:15:44.534Z,4.30
2017-08-05T05:16:40.787Z,4.30
2017-08-05T05:17:37.047Z,4.80
2017-08-05T05:18:33.311Z,4.70
2017-08-05T05:19:29.577Z,3.80
2017-08-05T05:20:25.823Z,4.70
2017-08-05T05:21:22.087Z,4.50
2017-08-05T05:22:18.330Z,4.20
2017-08-05T05:23:14.580Z,4.50
2017-08-05T05:24:10.836Z,3.50
2017-08-05T05:25:07.099Z,4.00
2017-08-05T05:26:03.360Z,5.20
2017-08-05T05:26:59.627Z,6.40
2017-08-05T05:27:55.878Z,4.50
2017-08-05T05:28:52.131Z,4.60
2017-08-05T05:29:48.379Z,4.10
2017-08-05T05:30:44.654Z,3.60
2017-08-05T05:31:40.909Z,3.70
2017-08-05T05:32:37.175Z,4.30
2017-08-05T05:33:33.441Z,4.70
2017-08-05T05:34:29.688Z,4.20
2017-08-05T05:35:25.960Z,4.90
2017-08-05T05:36:22.219Z,4.50
2017-08-05T05:37:18.478Z,3.30
2017-08-05T05:38:14.730Z,4.80
2017-08-05T05:39:10.974Z,4.60
2017-08-05T05:40:07.244Z,4.00
2017-08-05T05:41:03.534Z,4.80
2017-08-05T05:41:59.795Z,5.50
2017-08-05T05:42:56.051Z,4.30
2017-08-05T05:43:52.314Z,4.40
2017-08-05T05:44:48.567Z,4.80
2017-08-05T05:45:44.822Z,4.20
2017-08-05T05:46:41.137Z,4.30
2017-08-05T05:47:37.395Z,4.90
2017-08-05T05:48:33.636Z,4.90
2017-08-05T05:49:29.887Z,4.30
2017-08-05T05:50:26.151Z,4.30
2017-08-05T05:51:22.395Z,4.80
2017-08-05T05:52:18.666Z,4.70
2017-08-05T05:53:14.915Z,4.70
2017-08-05T05:54:11.155Z,4.60
2017-08-05T05:55:07.407Z,5.70
2017-08-05T05:56:03.672Z,4.70
2017-08-05T05:56:59.942Z,5.30
2017-08-05T05:57:56.192Z,4.90
2017-08-05T05:58:52.447Z,4.50
2017-08-05T05:59:48.707Z,4.40
2017-08-05T06:00:44.964Z,4.50
2017-08-05T06:01:41.207Z,4.60
2017-08-05T06:02:37.467Z,7.00
2017-08-05T06:03:33.706Z,4.80
2017-08-05T06:04:29.970Z,4.90
2017-08-05T06:05:26.228Z,6.10
2017-08-05T06:06:22.479Z,5.10
2017-08-05T06:07:18.756Z,5.10
2017-08-05T06:08:15.014Z,4.10
2017-08-05T06:09:11.255Z,6.00
2017-08-05T06:10:07.499Z,4.40
2017-08-05T06:11:03.755Z,4.70
2017-08-05T06:12:00.010Z,4.60
2017-08-05T06:12:56.283Z,7.70
2017-08-05T06:13:52.559Z,5.00
2017-08-05T06:14:48.815Z,6.10
2017-08-05T06:15:45.055Z,4.90
2017-08-05T06:16:41.310Z,5.50
2017-08-05T06:17:37.603Z,4.30
2017-08-05T06:18:33.863Z,4.20
2017-08-05T06:19:30.138Z,4.30
2017-08-05T06:20:26.402Z,4.70
2017-08-05T06:21:22.681Z,5.20
2017-08-05T06:22:18.930Z,5.40
2017-08-05T06:23:15.211Z,4.80
2017-08-05T06:24:11.495Z,5.70
2017-08-05T06:25:07.748Z,4.60
2017-08-05T06:26:03.991Z,4.20
2017-08-05T06:27:00.256Z,4.20
2017-08-05T06:27:56.511Z,5.30
2017-08-05T06:28:52.787Z,5.10
2017-08-05T06:29:49.042Z,4.70
2017-08-05T06:30:45.283Z,4.90
2017-08-05T06:31:41.535Z,4.40
2017-08-05T06:32:37.796Z,5.80
2017-08-05T06:33:34.063Z,5.70
2017-08-05T06:34:30.336Z,4.90
2017-08-05T06:35:26.584Z,4.20
2017-08-05T06:36:22.818Z,4.50
2017-08-05T06:37:19.075Z,4.50
2017-08-05T06:38:15.319Z,5.10
2017-08-05T06:39:11.702Z,4.90
2017-08-05T06:40:07.946Z,5.00
2017-08-05T06:41:04.192Z,4.60
2017-08-05T06:42:00.440Z,5.20
2017-08-05T06:42:56.691Z,7.10
2017-08-05T06:43:52.935Z,5.10
2017-08-05T06:44:49.199Z,4.40
2017-08-05T06:45:45.446Z,3.60
2017-08-05T06:46:41.692Z,4.00
2017-08-05T06:47:37.955Z,3.70
2017-08-05T06:48:34.207Z,4.00
2017-08-05T06:49:30.475Z,4.60
2017-08-05T06:50:26.732Z,5.50
2017-08-05T06:51:22.988Z,4.20
2017-08-05T06:52:19.255Z,3.50
2017-08-05T06:53:15.507Z,4.70
2017-08-05T06:54:16.292Z,4.60
2017-08-05T06:55:18.994Z,3.70
2017-08-05T06:56:15.263Z,3.20
2017-08-05T06:57:11.520Z,3.90
2017-08-05T06:58:07.790Z,3.80
2017-08-05T06:59:04.042Z,3.90
2017-08-05T07:00:00.310Z,3.80
2017-08-05T07:00:56.575Z,4.10
2017-08-05T07:01:52.834Z,4.20
2017-08-05T07:02:49.072Z,4.10
2017-08-05T07:03:45.318Z,4.50
2017-08-05T07:04:41.560Z,3.30
2017-08-05T07:05:37.814Z,3.80
2017-08-05T07:06:34.050Z,3.70
2017-08-05T07:07:30.295Z,4.00
2017-08-05T07:08:26.545Z,4.40
2017-08-05T07:09:22.807Z,3.40
2017-08-05T07:10:19.083Z,4.50
2017-08-05T07:11:15.327Z,3.50
2017-08-05T07:12:11.587Z,3.70
2017-08-05T07:13:07.838Z,3.80
2017-08-05T07:14:04.083Z,3.80
2017-08-05T07:15:00.327Z,4.70
2017-08-05T07:15:56.594Z,4.00
2017-08-05T07:16:52.844Z,4.40
2017-08-05T07:17:49.095Z,3.90
2017-08-05T07:18:45.340Z,4.00
2017-08-05T07:19:41.610Z,3.60
2017-08-05T07:20:37.887Z,4.50
2017-08-05T07:21:34.136Z,4.30
2017-08-05T07:22:30.383Z,4.10
2017-08-05T07:23:26.627Z,3.30
2017-08-05T07:24:22.899Z,4.40
2017-08-05T07:25:19.147Z,4.00
2017-08-05T07:26:15.422Z,3.90
2017-08-05T07:27:11.680Z,4.00
2017-08-05T07:28:07.942Z,4.00
2017-08-05T07:29:04.195Z,3.80
2017-08-05T07:30:00.446Z,4.10
2017-08-05T07:30:56.694Z,3.40
2017-08-05T07:31:52.960Z,3.80
2017-08-05T07:32:49.230Z,3.60
2017-08-05T07:33:45.492Z,3.70
2017-08-05T07:34:41.726Z,3.40
2017-08-05T07:35:37.999Z,4.00
2017-08-05T07:36:34.243Z,4.10
2017-08-05T07:37:30.502Z,4.30
2017-08-05T07:38:26.767Z,3.10
2017-08-05T07:39:23.021Z,3.80
2017-08-05T07:40:19.291Z,3.80
2017-08-05T07:41:15.563Z,3.20
2017-08-05T07:42:11.852Z,3.90
2017-08-05T07:43:09.015Z,3.80
2017-08-05T07:44:05.298Z,3.50
2017-08-05T07:45:01.571Z,4.20
2017-08-05T07:45:57.831Z,3.30
2017-08-05T07:46:54.075Z,3.60
2017-08-05T07:47:50.335Z,3.40
2017-08-05T07:48:46.587Z,4.10
2017-08-05T07:49:42.831Z,3.20
2017-08-05T07:50:39.079Z,3.80
2017-08-05T07:51:35.366Z,4.40
2017-08-05T07:52:31.611Z,4.00
2017-08-05T07:53:28.039Z,4.10
2017-08-05T07:54:24.285Z,3.90
2017-08-05T07:55:20.523Z,3.60
2017-08-05T07:56:16.777Z,4.10
2017-08-05T07:57:13.043Z,4.30
2017-08-05T07:58:09.299Z,3.50
2017-08-05T07:59:05.568Z,2.80
2017-08-05T08:00:01.820Z,3.30
2017-08-05T08:00:58.078Z,4.50
2017-08-05T08:01:54.334Z,3.30
2017-08-05T08:02:50.590Z,3.20
2017-08-05T08:03:46.858Z,2.80
2017-08-05T08:04:43.107Z,3.30
2017-08-05T08:05:39.342Z,3.00
2017-08-05T08:06:35.592Z,3.30
2017-08-05T08:07:31.851Z,3.40
2017-08-05T08:08:28.102Z,4.00
2017-08-05T08:09:24.372Z,3.30
2017-08-05T08:10:20.635Z,3.20
2017-08-05T08:11:16.895Z,3.70
2017-08-05T08:12:13.142Z,3.20
2017-08-05T08:13:09.390Z,4.00
2017-08-05T08:14:05.658Z,4.20
2017-08-05T08:15:01.916Z,3.30
2017-08-05T08:15:58.167Z,3.50
2017-08-05T08:16:54.432Z,3.30
2017-08-05T08:17:50.679Z,3.60
2017-08-05T08:18:46.931Z,3.20
2017-08-05T08:19:43.226Z,4.10
2017-08-05T08:20:39.485Z,2.90
2017-08-05T08:21:35.735Z,3.60
2017-08-05T08:22:31.983Z,3.20
2017-08-05T08:23:28.237Z,3.40
2017-08-05T08:24:24.499Z,2.90
2017-08-05T08:25:20.765Z,3.90
2017-08-05T08:26:17.027Z,3.30
2017-08-05T08:27:13.283Z,3.60
2017-08-05T08:28:09.547Z,3.80
2017-08-05T08:29:05.834Z,3.70
2017-08-05T08:30:02.074Z,3.90
2017-08-05T08:30:58.348Z,3.10
2017-08-05T08:31:54.591Z,3.40
2017-08-05T08:32:50.838Z,3.30
2017-08-05T08:33:47.084Z,3.60
2017-08-05T08:34:43.338Z,3.10
2017-08-05T08:35:39.587Z,4.00
2017-08-05T08:36:35.836Z,3.50
2017-08-05T08:37:32.083Z,3.00
2017-08-05T08:38:28.332Z,3.00
2017-08-05T08:39:24.590Z,3.20
2017-08-05T08:40:20.843Z,3.40
2017-08-05T08:41:17.099Z,3.60
2017-08-05T08:42:13.352Z,3.40
2017-08-05T08:43:09.599Z,2.60
2017-08-05T08:44:05.859Z,3.50
2017-08-05T08:45:02.112Z,2.70
2017-08-05T08:45:58.401Z,3.50
2017-08-05T08:46:54.668Z,2.70
2017-08-05T08:47:50.914Z,3.80
2017-08-05T08:48:47.165Z,3.80
2017-08-05T08:49:43.424Z,4.20
2017-08-05T08:50:39.670Z,3.20
2017-08-05T08:51:35.938Z,3.70
2017-08-05T08:52:32.194Z,4.10
2017-08-05T08:53:28.447Z,2.90
2017-08-05T08:54:24.699Z,3.60
2017-08-05T08:55:20.954Z,3.50
2017-08-05T08:56:17.223Z,4.60
2017-08-05T08:57:13.503Z,4.10
2017-08-05T08:58:09.751Z,2.90
2017-08-05T08:59:06.010Z,3.40
2017-08-05T09:00:02.259Z,3.40
2017-08-05T09:00:58.535Z,3.60
2017-08-05T09:01:54.794Z,4.70
2017-08-05T09:02:51.067Z,3.70
2017-08-05T09:03:47.323Z,3.40
2017-08-05T09:04:43.582Z,3.80
2017-08-05T09:05:39.847Z,4.40
2017-08-05T09:06:36.105Z,3.20
2017-08-05T09:07:32.407Z,3.80
2017-08-05T09:08:28.667Z,4.10
2017-08-05T09:09:24.919Z,3.60
2017-08-05T09:10:21.189Z,3.40
2017-08-05T09:11:17.431Z,4.90
2017-08-05T09:12:13.674Z,3.40
2017-08-05T09:13:09.935Z,4.10
2017-08-05T09:14:06.194Z,3.10
2017-08-05T09:15:02.451Z,4.70
2017-08-05T09:15:58.712Z,3.00
2017-08-05T09:16:54.986Z,3.40
2017-08-05T09:17:51.266Z,3.00
2017-08-05T09:18:47.626Z,4.50
2017-08-05T09:19:43.915Z,4.30
2017-08-05T09:20:40.180Z,3.70
2017-08-05T09:21:36.438Z,3.80
2017-08-05T09:22:32.700Z,3.40
2017-08-05T09:23:28.994Z,3.40
2017-08-05T09:24:25.246Z,3.90
2017-08-05T09:25:21.507Z,3.10
2017-08-05T09:26:17.778Z,4.30
2017-08-05T09:27:14.052Z,3.50
2017-08-05T09:28:10.298Z,4.90
2017-08-05T09:29:06.562Z,3.50
2017-08-05T09:30:02.812Z,2.80
2017-08-05T09:30:59.087Z,3.40
2017-08-05T09:31:55.340Z,4.00
2017-08-05T09:32:51.619Z,3.30
2017-08-05T09:33:47.871Z,3.70
2017-08-05T09:34:44.139Z,4.20
2017-08-05T09:35:40.387Z,3.90
2017-08-05T09:36:36.642Z,3.60
2017-08-05T09:37:32.887Z,3.20
2017-08-05T09:38:29.138Z,3.60
2017-08-05T09:39:25.416Z,3.30
2017-08-05T09:40:21.675Z,3.90
2017-08-05T09:41:17.936Z,3.60
2017-08-05T09:42:14.191Z,3.20
2017-08-05T09:43:10.456Z,3.50
2017-08-05T09:44:06.699Z,3.30
2017-08-05T09:45:02.958Z,3.00
2017-08-05T09:45:59.220Z,3.90
2017-08-05T09:46:55.489Z,3.30
2017-08-05T09:47:51.748Z,2.90
2017-08-05T09:48:47.999Z,3.20
2017-08-05T09:49:44.287Z,4.20
2017-08-05T09:50:40.531Z,3.30
2017-08-05T09:51:36.771Z,3.40
2017-08-05T09:52:33.023Z,2.80
2017-08-05T09:53:29.276Z,3.30
2017-08-05T09:54:25.523Z,4.20
2017-08-05T09:55:21.803Z,3.40
2017-08-05T09:56:18.046Z,2.90
2017-08-05T09:57:14.295Z,3.60
2017-08-05T09:58:10.565Z,3.50
2017-08-05T09:59:06.794Z,3.70
2017-08-05T10:00:03.047Z,4.40
2017-08-05T10:00:59.315Z,4.40
2017-08-05T10:01:55.572Z,4.20
2017-08-05T10:02:51.802Z,3.80
2017-08-05T10:03:48.050Z,3.80
2017-08-05T10:04:44.290Z,2.90
2017-08-05T10:05:40.535Z,3.70
2017-08-05T10:06:36.791Z,4.30
2017-08-05T10:07:33.028Z,4.10
2017-08-05T10:08:29.270Z,3.60
2017-08-05T10:09:25.514Z,3.70
2017-08-05T10:10:21.760Z,3.10
2017-08-05T10:11:18.009Z,3.70
2017-08-05T10:12:14.267Z,3.70
2017-08-05T10:13:10.531Z,4.60
2017-08-05T10:14:06.803Z,3.80
2017-08-05T10:15:03.049Z,3.80
2017-08-05T10:15:59.306Z,3.70
2017-08-05T10:16:55.567Z,3.60
2017-08-05T10:17:51.815Z,3.50
2017-08-05T10:18:48.059Z,3.20
2017-08-05T10:19:44.315Z,3.80
2017-08-05T10:20:40.556Z,3.90
2017-08-05T10:21:36.814Z,3.30
2017-08-05T10:22:33.075Z,3.50
2017-08-05T10:23:29.320Z,4.10
2017-08-05T10:24:25.574Z,3.90
2017-08-05T10:25:21.814Z,4.00
2017-08-05T10:26:18.058Z,4.70
2017-08-05T10:27:14.321Z,3.50
2017-08-05T10:28:10.581Z,3.60
2017-08-05T10:29:06.818Z,3.70
2017-08-05T10:30:03.080Z,4.00
2017-08-05T10:30:59.339Z,3.40
2017-08-05T10:31:55.599Z,3.70
2017-08-05T10:32:51.855Z,4.10
2017-08-05T10:33:48.086Z,3.50
2017-08-05T10:34:44.343Z,3.60
2017-08-05T10:35:40.575Z,3.60
2017-08-05T10:36:36.819Z,3.60
2017-08-05T10:37:33.099Z,3.20
2017-08-05T10:38:29.335Z,3.10
2017-08-05T10:39:25.567Z,3.60
2017-08-05T10:40:21.828Z,4.00
2017-08-05T10:41:18.068Z,3.90
2017-08-05T10:42:14.335Z,3.70
2017-08-05T10:43:10.598Z,4.50
2017-08-05T10:44:06.845Z,4.10
2017-08-05T10:45:03.096Z,3.60
2017-08-05T10:45:59.341Z,3.40
2017-08-05T10:46:55.582Z,3.60
2017-08-05T10:47:51.915Z,3.90
2017-08-05T10:48:48.162Z,4.00
2017-08-05T10:49:44.428Z,3.20
2017-08-05T10:50:40.671Z,3.50
2017-08-05T10:51:36.915Z,3.40
2017-08-05T10:52:33.175Z,3.10
2017-08-05T10:53:29.456Z,3.50
2017-08-05T10:54:25.694Z,3.10
2017-08-05T10:55:21.946Z,3.50
2017-08-05T10:56:18.203Z,3.20
2017-08-05T10:57:14.451Z,3.10
2017-08-05T10:58:10.719Z,3.00
2017-08-05T10:59:06.971Z,2.80
2017-08-05T11:00:03.786Z,3.80
2017-08-05T11:01:00.031Z,3.70
2017-08-05T11:01:56.271Z,3.60
2017-08-05T11:02:52.520Z,3.00
2017-08-05T11:03:48.804Z,3.10
2017-08-05T11:04:45.050Z,3.00
2017-08-05T11:05:41.287Z,4.10
2017-08-05T11:06:37.517Z,3.90
2017-08-05T11:07:33.762Z,3.50
2017-08-05T11:08:29.990Z,3.70
2017-08-05T11:09:26.238Z,2.90
2017-08-05T11:10:22.490Z,2.80
2017-08-05T11:11:18.731Z,3.60
2017-08-05T11:12:14.970Z,2.80
2017-08-05T11:13:11.220Z,3.10
2017-08-05T11:14:07.467Z,3.00
2017-08-05T11:15:03.720Z,3.70
2017-08-05T11:15:59.962Z,3.30
2017-08-05T11:16:56.198Z,2.80
2017-08-05T11:17:52.464Z,2.80
2017-08-05T11:18:48.716Z,3.30
2017-08-05T11:19:44.974Z,3.00
2017-08-05T11:20:41.223Z,2.70
2017-08-05T11:21:37.470Z,2.60
2017-08-05T11:22:33.730Z,2.30
2017-08-05T11:23:29.992Z,3.00
2017-08-05T11:24:26.234Z,2.60
2017-08-05T11:25:22.491Z,3.30
2017-08-05T11:26:18.739Z,2.90
2017-08-05T11:27:14.984Z,3.10
2017-08-05T11:28:11.227Z,3.10
2017-08-05T11:29:07.478Z,2.50
2017-08-05T11:30:03.739Z,3.00
2017-08-05T11:31:00.000Z,2.20
2017-08-05T11:32:01.231Z,2.30
2017-08-05T11:32:57.477Z,2.40
2017-08-05T11:33:53.737Z,3.20
2017-08-05T11:34:49.983Z,3.00
2017-08-05T11:35:46.268Z,2.10
2017-08-05T11:36:42.531Z,3.00
2017-08-05T11:37:38.788Z,2.80
2017-08-05T11:38:35.028Z,2.70
2017-08-05T11:39:31.277Z,2.40
2017-08-05T11:40:27.515Z,2.90
2017-08-05T11:41:23.778Z,2.90
2017-08-05T11:42:20.175Z,2.10
2017-08-05T11:43:16.421Z,2.90
2017-08-05T11:44:12.693Z,2.50
2017-08-05T11:45:09.028Z,2.20
2017-08-05T11:46:05.343Z,2.50
2017-08-05T11:47:01.875Z,2.50
2017-08-05T11:47:58.468Z,2.10
2017-08-05T11:48:55.823Z,2.30
2017-08-05T11:49:52.114Z,2.20
2017-08-05T11:50:48.531Z,2.40
2017-08-05T11:51:44.863Z,2.90
2017-08-05T11:52:41.110Z,2.40
2017-08-05T11:53:37.378Z,2.10
2017-08-05T11:54:33.651Z,2.00
2017-08-05T11:55:29.903Z,2.20
2017-08-05T11:56:26.169Z,1.60
2017-08-05T11:57:22.463Z,1.90
2017-08-05T11:58:18.719Z,2.00
2017-08-05T11:59:14.984Z,2.30
2017-08-05T12:00:11.256Z,2.20
2017-08-05T12:01:07.529Z,2.40
2017-08-05T12:02:03.787Z,1.70
2017-08-05T12:03:00.039Z,2.10
2017-08-05T12:03:56.290Z,2.30
2017-08-05T12:04:52.549Z,1.90
2017-08-05T12:05:48.814Z,2.00
2017-08-05T12:06:45.076Z,2.10
2017-08-05T12:07:41.400Z,2.20
2017-08-05T12:08:37.667Z,2.10
2017-08-05T12:09:33.933Z,2.40
2017-08-05T12:10:30.204Z,2.20
2017-08-05T12:11:26.455Z,2.10
2017-08-05T12:12:22.724Z,2.40
2017-08-05T12:13:18.987Z,2.60
2017-08-05T12:14:15.243Z,2.00
2017-08-05T12:15:11.503Z,2.40
2017-08-05T12:16:07.746Z,2.00
2017-08-05T12:17:04.002Z,1.90
2017-08-05T12:18:00.282Z,2.30
2017-08-05T12:18:56.532Z,2.20
2017-08-05T12:19:52.799Z,2.00
2017-08-05T12:20:49.058Z,2.10
2017-08-05T12:21:45.319Z,1.80
2017-08-05T12:22:41.575Z,2.50
2017-08-05T12:23:37.871Z,1.90
2017-08-05T12:24:34.135Z,1.90
2017-08-05T12:25:30.720Z,1.80
2017-08-05T12:26:26.980Z,1.70
2017-08-05T12:27:23.229Z,1.80
2017-08-05T12:28:19.496Z,2.00
2017-08-05T12:29:15.779Z,2.20